Time;durP1;ratioP1;P1;durP2;ratioP2;P2;SDS_P1;SDS_P2;PMS_P1;PMS_P2;Temp;Humidity;BMP_temperature;BMP_pressure;BME280_temperature;BME280_humidity;BME280_pressure;Samples;Min_cycle;Max_cycle;Signal;HPM_P1;HPM_P2
2022/02/28 00:00:19;;;;;;;10.02;6.55;;;;;;;-146.05;100.00;59461.22;5031707;28;20045;-75
2022/02/28 00:02:48;;;;;;;10.65;6.60;;;;;;;-146.05;100.00;59461.22;5031767;28;20042;-74
2022/02/28 00:05:16;;;;;;;10.45;6.63;;;;;;;-146.05;100.00;59461.22;5031856;28;20049;-74
2022/02/28 00:07:44;;;;;;;9.48;6.30;;;;;;;-146.05;100.00;59461.22;5053689;23;20470;-80
2022/02/28 00:10:13;;;;;;;12.13;7.20;;;;;;;-146.05;100.00;59461.22;5035297;28;20058;-79
2022/02/28 00:12:40;;;;;;;9.07;6.20;;;;;;;-146.05;100.00;59461.22;5035581;28;20459;-80
2022/02/28 00:15:08;;;;;;;10.98;7.10;;;;;;;-146.05;100.00;59461.22;5035589;28;20045;-79
2022/02/28 00:17:36;;;;;;;14.27;8.55;;;;;;;-146.05;100.00;59461.22;5039275;28;20045;-79
2022/02/28 00:20:05;;;;;;;11.82;7.00;;;;;;;-146.05;100.00;59461.22;5039497;28;20042;-80
2022/02/28 00:22:33;;;;;;;10.77;7.00;;;;;;;-146.05;100.00;59461.22;5040404;28;20045;-78
2022/02/28 00:25:01;;;;;;;12.20;7.05;;;;;;;-146.05;100.00;59461.22;5041720;28;20057;-84
2022/02/28 00:27:30;;;;;;;11.98;6.38;;;;;;;-146.05;100.00;59461.22;5041047;28;20049;-79
2022/02/28 00:29:57;;;;;;;8.68;6.25;;;;;;;-146.05;100.00;59461.22;5040315;28;20530;-79
2022/02/28 00:32:25;;;;;;;14.05;8.88;;;;;;;-146.05;100.00;59461.22;5039131;28;20050;-79
2022/02/28 00:34:53;;;;;;;15.65;8.27;;;;;;;-146.05;100.00;59461.22;5039312;28;20060;-80
2022/02/28 00:37:21;;;;;;;10.93;6.80;;;;;;;-146.05;100.00;59461.22;5044671;28;20037;-80
2022/02/28 00:39:49;;;;;;;9.93;6.32;;;;;;;-146.05;100.00;59461.22;5060399;28;20037;-78
2022/02/28 00:42:16;;;;;;;9.90;6.60;;;;;;;-146.05;100.00;59461.22;5059201;28;20033;-81
2022/02/28 00:44:45;;;;;;;11.43;6.95;;;;;;;-146.05;100.00;59461.22;5043467;28;20053;-80
2022/02/28 00:47:13;;;;;;;11.82;7.50;;;;;;;-146.05;100.00;59461.22;5041321;28;20049;-81
2022/02/28 00:49:40;;;;;;;11.60;7.80;;;;;;;-146.05;100.00;59461.22;5042359;28;20048;-79
2022/02/28 00:52:08;;;;;;;12.70;8.40;;;;;;;-146.05;100.00;59461.22;5041457;28;20060;-79
2022/02/28 00:54:35;;;;;;;9.65;7.00;;;;;;;-146.05;100.00;59461.22;5040493;28;20427;-85
2022/02/28 00:57:03;;;;;;;10.65;6.95;;;;;;;-146.05;100.00;59461.22;5041886;28;20051;-81
2022/02/28 00:59:31;;;;;;;8.50;6.63;;;;;;;-146.05;100.00;59461.22;5043215;28;20045;-81
2022/02/28 01:02:00;;;;;;;13.25;7.20;;;;;;;-146.05;100.00;59461.22;5043412;28;20049;-82
2022/02/28 01:04:28;;;;;;;8.65;6.28;;;;;;;-146.05;100.00;59461.22;5043348;28;20091;-81
2022/02/28 01:06:55;;;;;;;10.65;7.15;;;;;;;-146.05;100.00;59461.22;5042944;28;20053;-79
2022/02/28 01:09:23;;;;;;;11.18;7.15;;;;;;;-146.05;100.00;59461.22;5044094;28;20056;-79
2022/02/28 01:11:50;;;;;;;10.40;6.35;;;;;;;-146.05;100.00;59461.22;5045339;28;20049;-81
2022/02/28 01:14:18;;;;;;;9.15;6.65;;;;;;;-146.05;100.00;59461.22;5044140;28;20042;-81
2022/02/28 01:16:47;;;;;;;11.40;7.38;;;;;;;-146.05;100.00;59461.22;5043783;28;20077;-81
2022/02/28 01:19:16;;;;;;;9.30;6.22;;;;;;;-146.05;100.00;59461.22;5043852;28;20424;-83
2022/02/28 01:21:43;;;;;;;9.38;6.95;;;;;;;-146.05;100.00;59461.22;5043781;28;20423;-81
2022/02/28 01:24:11;;;;;;;10.05;7.07;;;;;;;-146.05;100.00;59461.22;5043249;28;20053;-80
2022/02/28 01:26:39;;;;;;;10.43;6.55;;;;;;;-146.05;100.00;59461.22;5041770;28;20045;-82
2022/02/28 01:29:06;;;;;;;11.88;6.32;;;;;;;-146.05;100.00;59461.22;5041794;28;20054;-80
2022/02/28 01:31:34;;;;;;;12.32;7.05;;;;;;;-146.05;100.00;59461.22;5040187;28;20053;-80
2022/02/28 01:34:01;;;;;;;11.68;8.15;;;;;;;-146.05;100.00;59461.22;5039382;28;20069;-80
2022/02/28 01:36:30;;;;;;;10.80;7.22;;;;;;;-146.05;100.00;59461.22;5038595;28;20321;-81
2022/02/28 01:39:00;;;;;;;10.70;7.30;;;;;;;-146.05;100.00;59461.22;5038911;28;20431;-80
2022/02/28 01:41:27;;;;;;;10.18;6.60;;;;;;;-146.05;100.00;59461.22;5039227;28;20121;-80
2022/02/28 01:43:55;;;;;;;8.75;6.18;;;;;;;-146.05;100.00;59461.22;5039299;28;20045;-80
2022/02/28 01:46:23;;;;;;;9.43;6.63;;;;;;;-146.05;100.00;59461.22;5038163;28;20107;-80
2022/02/28 01:48:50;;;;;;;8.65;6.55;;;;;;;-146.05;100.00;59461.22;5039059;28;20042;-80
2022/02/28 01:51:18;;;;;;;11.15;6.50;;;;;;;-146.05;100.00;59461.22;5040089;28;20045;-79
2022/02/28 01:53:47;;;;;;;9.00;6.63;;;;;;;-146.05;100.00;59461.22;5040768;28;20049;-80
2022/02/28 01:56:14;;;;;;;10.35;6.72;;;;;;;-146.05;100.00;59461.22;5037375;28;20491;-80
2022/02/28 01:58:42;;;;;;;9.23;6.88;;;;;;;-146.05;100.00;59461.22;5037152;28;20053;-80
2022/02/28 02:01:10;;;;;;;7.78;6.05;;;;;;;-146.05;100.00;59461.22;5038017;28;20643;-79
2022/02/28 02:03:38;;;;;;;8.82;6.50;;;;;;;-146.05;100.00;59461.22;5037769;28;20073;-78
2022/02/28 02:06:09;;;;;;;8.52;6.15;;;;;;;-146.05;100.00;59461.22;5036698;28;20543;-80
2022/02/28 02:08:37;;;;;;;9.77;6.43;;;;;;;-146.05;100.00;59461.22;5037455;28;20042;-81
2022/02/28 02:11:06;;;;;;;12.63;7.15;;;;;;;-146.05;100.00;59461.22;5037698;28;20053;-80
2022/02/28 02:13:34;;;;;;;8.48;5.93;;;;;;;-146.05;100.00;59461.22;5036689;28;20065;-80
2022/02/28 02:16:02;;;;;;;12.98;7.15;;;;;;;-146.05;100.00;59461.22;5035728;28;20522;-80
2022/02/28 02:18:29;;;;;;;7.90;6.05;;;;;;;-146.05;100.00;59461.22;5037536;28;20053;-80
2022/02/28 02:20:59;;;;;;;10.43;7.35;;;;;;;-146.05;100.00;59461.22;5036913;28;20045;-78
2022/02/28 02:23:27;;;;;;;10.90;7.13;;;;;;;-146.05;100.00;59461.22;5038252;28;20056;-80
2022/02/28 02:25:55;;;;;;;9.82;6.43;;;;;;;-146.05;100.00;59461.22;5040244;28;20068;-82
2022/02/28 02:28:24;;;;;;;10.73;7.63;;;;;;;-146.05;100.00;59461.22;5038375;28;20053;-79
2022/02/28 02:30:54;;;;;;;9.50;6.30;;;;;;;-146.05;100.00;59461.22;5037828;28;20056;-79
2022/02/28 02:33:22;;;;;;;11.38;7.55;;;;;;;-146.05;100.00;59461.22;5037586;28;20073;-80
2022/02/28 02:35:52;;;;;;;8.90;6.35;;;;;;;-146.05;100.00;59461.22;5036492;28;20056;-79
2022/02/28 02:38:22;;;;;;;11.35;6.55;;;;;;;-146.05;100.00;59461.22;5036925;28;20045;-79
2022/02/28 02:40:50;;;;;;;9.88;6.40;;;;;;;-146.05;100.00;59461.22;5036848;28;20060;-80
2022/02/28 02:43:18;;;;;;;11.35;7.10;;;;;;;-146.05;100.00;59461.22;5036051;28;20052;-81
2022/02/28 02:45:46;;;;;;;9.80;7.00;;;;;;;-146.05;100.00;59461.22;5035276;28;20050;-81
2022/02/28 02:48:17;;;;;;;8.32;6.85;;;;;;;-146.05;100.00;59461.22;5036393;28;20046;-80
2022/02/28 02:50:45;;;;;;;10.35;6.57;;;;;;;-146.05;100.00;59461.22;5036881;28;20051;-80
2022/02/28 02:53:14;;;;;;;8.52;6.32;;;;;;;-146.05;100.00;59461.22;5036753;28;20511;-81
2022/02/28 02:55:43;;;;;;;10.75;7.38;;;;;;;-146.05;100.00;59461.22;5036863;28;20064;-81
2022/02/28 02:58:13;;;;;;;10.73;6.82;;;;;;;-146.05;100.00;59461.22;5038233;28;20056;-80
2022/02/28 03:00:43;;;;;;;10.43;6.82;;;;;;;-146.05;100.00;59461.22;5038268;28;20526;-80
2022/02/28 03:03:11;;;;;;;10.02;6.93;;;;;;;-146.05;100.00;59461.22;5039127;28;20045;-81
2022/02/28 03:05:39;;;;;;;9.57;6.28;;;;;;;-146.05;100.00;59461.22;5038568;28;20050;-81
2022/02/28 03:08:07;;;;;;;11.35;8.15;;;;;;;-146.05;100.00;59461.22;5038762;28;20503;-81
2022/02/28 03:10:34;;;;;;;10.48;6.25;;;;;;;-146.05;100.00;59461.22;5038244;28;20056;-81
2022/02/28 03:13:03;;;;;;;9.40;6.82;;;;;;;-146.05;100.00;59461.22;5037707;28;20053;-79
2022/02/28 03:15:31;;;;;;;10.15;7.07;;;;;;;-146.05;100.00;59461.22;5038163;28;20447;-82
2022/02/28 03:17:58;;;;;;;10.68;7.28;;;;;;;-146.05;100.00;59461.22;5037243;28;20111;-80
2022/02/28 03:20:26;;;;;;;10.13;6.22;;;;;;;-146.05;100.00;59461.22;5037778;28;20519;-79
2022/02/28 03:22:54;;;;;;;11.35;7.60;;;;;;;-146.05;100.00;59461.22;5037831;28;20050;-81
2022/02/28 03:25:21;;;;;;;11.43;7.65;;;;;;;-146.05;100.00;59461.22;5038409;28;20401;-81
2022/02/28 03:27:49;;;;;;;10.82;7.38;;;;;;;-146.05;100.00;59461.22;5036623;28;20049;-80
2022/02/28 03:30:18;;;;;;;12.18;7.80;;;;;;;-146.05;100.00;59461.22;5038261;28;20050;-82
2022/02/28 03:32:45;;;;;;;11.32;8.23;;;;;;;-146.05;100.00;59461.22;5038584;28;20045;-80
2022/02/28 03:35:14;;;;;;;10.80;7.45;;;;;;;-146.05;100.00;59461.22;5038852;28;20423;-82
2022/02/28 03:37:42;;;;;;;18.08;10.38;;;;;;;-146.05;100.00;59461.22;5037304;28;20056;-81
2022/02/28 03:40:11;;;;;;;24.13;13.30;;;;;;;-146.05;100.00;59461.22;5038372;28;20064;-81
2022/02/28 03:42:38;;;;;;;23.55;12.90;;;;;;;-146.05;100.00;59461.22;5037803;28;20045;-81
2022/02/28 03:45:07;;;;;;;24.00;13.68;;;;;;;-146.05;100.00;59461.22;5037662;28;20049;-80
2022/02/28 03:47:37;;;;;;;22.45;12.65;;;;;;;-146.05;100.00;59461.22;5037272;28;20050;-81
2022/02/28 03:50:05;;;;;;;13.68;9.00;;;;;;;-146.05;100.00;59461.22;5037916;28;20049;-81
2022/02/28 03:52:33;;;;;;;15.07;8.82;;;;;;;-146.05;100.00;59461.22;5037551;28;20049;-81
2022/02/28 03:55:01;;;;;;;10.63;7.53;;;;;;;-146.05;100.00;59461.22;5037238;28;20060;-82
2022/02/28 03:57:29;;;;;;;12.07;8.07;;;;;;;-146.05;100.00;59461.22;5039231;28;20052;-82
2022/02/28 03:59:56;;;;;;;12.63;8.38;;;;;;;-146.05;100.00;59461.22;5041687;28;20079;-80
2022/02/28 04:02:24;;;;;;;13.15;7.78;;;;;;;-146.05;100.00;59461.22;5042109;28;20053;-79
2022/02/28 04:04:53;;;;;;;10.82;7.25;;;;;;;-146.05;100.00;59461.22;5041480;28;20087;-80
2022/02/28 04:07:20;;;;;;;10.05;7.00;;;;;;;-146.05;100.00;59461.22;5039786;28;20052;-79
2022/02/28 04:09:48;;;;;;;11.35;7.28;;;;;;;-146.05;100.00;59461.22;5040519;28;20392;-79
2022/02/28 04:12:16;;;;;;;10.15;7.47;;;;;;;-146.05;100.00;59461.22;5040429;28;20049;-79
2022/02/28 04:14:43;;;;;;;13.90;7.20;;;;;;;-146.05;100.00;59461.22;5040578;28;20054;-82
2022/02/28 04:17:10;;;;;;;13.75;7.88;;;;;;;-146.05;100.00;59461.22;5039409;28;20530;-78
2022/02/28 04:19:38;;;;;;;10.93;7.65;;;;;;;-146.05;100.00;59461.22;5040154;28;20050;-80
2022/02/28 04:22:08;;;;;;;14.80;8.50;;;;;;;-146.05;100.00;59461.22;5039659;28;20053;-79
2022/02/28 04:24:35;;;;;;;11.00;8.05;;;;;;;-146.05;100.00;59461.22;5040558;28;20053;-79
2022/02/28 04:27:03;;;;;;;11.57;7.90;;;;;;;-146.05;100.00;59461.22;5039635;28;20049;-80
2022/02/28 04:29:30;;;;;;;12.68;8.50;;;;;;;-146.05;100.00;59461.22;5039662;28;20056;-79
2022/02/28 04:32:00;;;;;;;12.93;9.10;;;;;;;-146.05;100.00;59461.22;5045734;28;20034;-80
2022/02/28 04:34:28;;;;;;;15.77;8.05;;;;;;;-146.05;100.00;59461.22;5060660;28;20161;-82
2022/02/28 04:36:55;;;;;;;13.60;9.10;;;;;;;-146.05;100.00;59461.22;5059780;28;20044;-78
2022/02/28 04:39:24;;;;;;;12.88;7.80;;;;;;;-146.05;100.00;59461.22;5050340;28;20107;-81
2022/02/28 04:41:52;;;;;;;11.57;8.07;;;;;;;-146.05;100.00;59461.22;5044725;28;20060;-84
2022/02/28 04:44:19;;;;;;;10.88;8.13;;;;;;;-146.05;100.00;59461.22;5043689;28;20049;-79
2022/02/28 04:46:49;;;;;;;15.13;8.07;;;;;;;-146.05;100.00;59461.22;5042284;28;20057;-80
2022/02/28 04:49:17;;;;;;;11.27;7.80;;;;;;;-146.05;100.00;59461.22;5043318;28;20067;-82
2022/02/28 04:51:45;;;;;;;12.70;8.25;;;;;;;-146.05;100.00;59461.22;5043194;28;20048;-80
2022/02/28 04:54:12;;;;;;;13.70;7.85;;;;;;;-146.05;100.00;59461.22;5042197;28;20049;-79
2022/02/28 04:56:42;;;;;;;11.73;7.53;;;;;;;-146.05;100.00;59461.22;5041584;28;20042;-79
2022/02/28 04:59:09;;;;;;;13.75;8.75;;;;;;;-146.05;100.00;59461.22;5041541;28;20061;-79
2022/02/28 05:01:37;;;;;;;12.77;8.00;;;;;;;-146.05;100.00;59461.22;5041563;28;20057;-80
2022/02/28 05:04:05;;;;;;;13.68;9.30;;;;;;;-146.05;100.00;59461.22;5041796;28;20053;-80
2022/02/28 05:06:32;;;;;;;11.30;8.02;;;;;;;-146.05;100.00;59461.22;5041274;28;20052;-80
2022/02/28 05:09:00;;;;;;;12.52;8.10;;;;;;;-146.05;100.00;59461.22;5042126;28;20049;-79
2022/02/28 05:11:27;;;;;;;13.45;8.60;;;;;;;-146.05;100.00;59461.22;5042121;28;20041;-82
2022/02/28 05:14:00;;;;;;;14.00;8.50;;;;;;;-146.05;100.00;59461.22;5041468;28;20113;-81
2022/02/28 05:16:27;;;;;;;11.77;7.75;;;;;;;-146.05;100.00;59461.22;5042036;28;20395;-80
2022/02/28 05:18:55;;;;;;;16.17;10.15;;;;;;;-146.05;100.00;59461.22;5042272;28;20096;-81
2022/02/28 05:21:22;;;;;;;13.70;8.80;;;;;;;-146.05;100.00;59461.22;5041932;28;20503;-78
2022/02/28 05:23:50;;;;;;;14.35;9.25;;;;;;;-146.05;100.00;59461.22;5040775;28;20447;-81
2022/02/28 05:26:17;;;;;;;12.98;8.32;;;;;;;-146.05;100.00;59461.22;5041250;28;20056;-80
2022/02/28 05:28:46;;;;;;;12.80;8.07;;;;;;;-146.05;100.00;59461.22;5041930;28;20056;-84
2022/02/28 05:31:15;;;;;;;13.02;7.65;;;;;;;-146.05;100.00;59461.22;5040204;28;20057;-80
2022/02/28 05:33:43;;;;;;;12.75;9.05;;;;;;;-146.05;100.00;59461.22;5040433;28;20077;-84
2022/02/28 05:36:10;;;;;;;14.00;8.25;;;;;;;-146.05;100.00;59461.22;5040147;28;20045;-80
2022/02/28 05:38:38;;;;;;;12.57;8.73;;;;;;;-146.05;100.00;59461.22;5039540;28;20068;-80
2022/02/28 05:41:06;;;;;;;14.55;9.40;;;;;;;-146.05;100.00;59461.22;5039809;28;20049;-79
2022/02/28 05:43:33;;;;;;;11.95;7.78;;;;;;;-146.05;100.00;59461.22;5039998;28;20056;-81
2022/02/28 05:46:05;;;;;;;12.98;8.50;;;;;;;-146.05;100.00;59461.22;5039415;28;20103;-80
2022/02/28 05:48:34;;;;;;;15.55;8.55;;;;;;;-146.05;100.00;59461.22;5038948;28;20049;-79
2022/02/28 05:51:01;;;;;;;13.05;8.50;;;;;;;-146.05;100.00;59461.22;5038672;28;20049;-78
2022/02/28 05:53:29;;;;;;;23.17;14.57;;;;;;;-146.05;100.00;59461.22;5043931;28;20049;-89
2022/02/28 05:55:59;;;;;;;27.45;17.13;;;;;;;-146.05;100.00;59461.22;5049541;28;20049;-90
2022/02/28 05:58:27;;;;;;;17.27;10.38;;;;;;;-146.05;100.00;59461.22;5053570;28;20073;-87
2022/02/28 06:00:55;;;;;;;17.35;9.85;;;;;;;-146.05;100.00;59461.22;5234226;23;20032;-88
2022/02/28 06:03:23;;;;;;;13.18;9.63;;;;;;;-146.05;100.00;59461.22;5026866;28;20100;-88
2022/02/28 06:05:53;;;;;;;13.98;9.40;;;;;;;-146.05;100.00;59461.22;5030702;28;20054;-86
2022/02/28 06:08:20;;;;;;;17.70;8.98;;;;;;;-146.05;100.00;59461.22;5032644;28;20144;-89
2022/02/28 06:10:48;;;;;;;13.68;9.02;;;;;;;-146.05;100.00;59461.22;5030451;28;20052;-91
2022/02/28 06:13:17;;;;;;;13.32;8.88;;;;;;;-146.05;100.00;59461.22;5032557;28;20117;-90
2022/02/28 06:15:45;;;;;;;14.50;8.57;;;;;;;-146.05;100.00;59461.22;5033049;28;20480;-90
2022/02/28 06:18:13;;;;;;;15.13;9.50;;;;;;;-146.05;100.00;59461.22;5037162;28;20038;-89
2022/02/28 06:20:47;;;;;;;16.55;9.27;;;;;;;-146.05;100.00;59461.22;5037648;28;20044;-90
2022/02/28 06:23:24;;;;;;;14.98;9.25;;;;;;;-146.05;100.00;59461.22;5038486;28;20073;-89
2022/02/28 06:25:56;;;;;;;18.00;8.88;;;;;;;-146.05;100.00;59461.22;5037301;28;20060;-88
2022/02/28 06:28:25;;;;;;;17.50;9.27;;;;;;;-146.05;100.00;59461.22;5030464;28;20037;-89
2022/02/28 07:22:17;;;;;;;15.35;10.00;;;;;;;-146.05;100.00;59461.22;5034654;28;20105;-88
2022/02/28 07:24:46;;;;;;;16.95;11.10;;;;;;;-146.05;100.00;59461.22;5037118;28;20029;-88
2022/02/28 07:27:14;;;;;;;13.57;8.45;;;;;;;-146.05;100.00;59461.22;5036549;28;20046;-85
2022/02/28 07:29:58;;;;;;;13.70;8.48;;;;;;;-146.05;100.00;59461.22;5036519;28;20114;-85
2022/02/28 07:32:40;;;;;;;12.57;8.80;;;;;;;-146.05;100.00;59461.22;5033882;28;20518;-85
2022/02/28 07:35:12;;;;;;;15.90;10.00;;;;;;;-146.05;100.00;59461.22;5025342;28;20472;-83
2022/02/28 07:37:41;;;;;;;13.30;8.85;;;;;;;-146.05;100.00;59461.22;5025843;28;20041;-84
2022/02/28 07:40:09;;;;;;;13.25;9.00;;;;;;;-146.05;100.00;59461.22;5027058;28;20522;-81
2022/02/28 07:42:37;;;;;;;12.30;8.77;;;;;;;-146.05;100.00;59461.22;5026833;28;20050;-83
2022/02/28 07:45:08;;;;;;;11.88;8.85;;;;;;;-146.05;100.00;59461.22;5026675;28;20042;-83
2022/02/28 07:47:36;;;;;;;10.95;8.50;;;;;;;-146.05;100.00;59461.22;5036670;28;20125;-86
2022/02/28 07:50:04;;;;;;;15.38;9.18;;;;;;;-146.05;100.00;59461.22;5036661;28;20080;-86
2022/02/28 07:52:32;;;;;;;12.85;9.05;;;;;;;-146.05;100.00;59461.22;5030858;28;20499;-85
2022/02/28 07:55:02;;;;;;;14.18;8.95;;;;;;;-146.05;100.00;59461.22;5026805;28;20518;-86
2022/02/28 07:57:29;;;;;;;12.10;8.30;;;;;;;-146.05;100.00;59461.22;5024454;28;20034;-87
2022/02/28 07:59:57;;;;;;;11.43;8.27;;;;;;;-146.05;100.00;59461.22;5023750;28;20050;-84
2022/02/28 08:02:25;;;;;;;13.15;9.15;;;;;;;-146.05;100.00;59461.22;5024459;28;20050;-87
2022/02/28 08:04:53;;;;;;;15.25;8.88;;;;;;;-146.05;100.00;59461.22;5022912;28;20046;-86
2022/02/28 08:07:20;;;;;;;14.05;8.70;;;;;;;-146.05;100.00;59461.22;5022320;28;20505;-82
2022/02/28 08:09:48;;;;;;;14.13;9.30;;;;;;;-146.05;100.00;59461.22;5023648;28;20050;-85
2022/02/28 08:12:17;;;;;;;13.48;8.18;;;;;;;-146.05;100.00;59461.22;5022984;28;20057;-85
2022/02/28 08:14:44;;;;;;;12.65;8.68;;;;;;;-146.05;100.00;59461.22;5024799;28;20503;-86
2022/02/28 08:17:12;;;;;;;12.45;8.95;;;;;;;-146.05;100.00;59461.22;5026594;28;20062;-87
2022/02/28 08:19:39;;;;;;;13.98;8.43;;;;;;;-146.05;100.00;59461.22;5026447;28;20427;-85
2022/02/28 08:22:08;;;;;;;13.18;8.05;;;;;;;-146.05;100.00;59461.22;5025901;28;20053;-88
2022/02/28 08:24:36;;;;;;;12.23;8.93;;;;;;;-146.05;100.00;59461.22;5026770;28;20073;-90
2022/02/28 08:27:04;;;;;;;14.05;9.00;;;;;;;-146.05;100.00;59461.22;5026739;28;20042;-87
2022/02/28 08:29:33;;;;;;;11.93;8.43;;;;;;;-146.05;100.00;59461.22;5026944;28;20451;-85
2022/02/28 08:32:00;;;;;;;11.20;8.40;;;;;;;-146.05;100.00;59461.22;5026783;28;20049;-85
2022/02/28 08:34:28;;;;;;;15.45;9.57;;;;;;;-146.05;100.00;59461.22;5028696;28;20053;-84
2022/02/28 08:36:56;;;;;;;13.50;9.43;;;;;;;-146.05;100.00;59461.22;5030484;28;20046;-80
2022/02/28 08:39:23;;;;;;;19.50;10.07;;;;;;;-146.05;100.00;59461.22;5040206;28;20040;-79
2022/02/28 08:41:52;;;;;;;14.57;10.00;;;;;;;-146.05;100.00;59461.22;5040397;28;20038;-81
2022/02/28 08:44:20;;;;;;;12.57;9.27;;;;;;;-146.05;100.00;59461.22;5035289;28;20044;-89
2022/02/28 08:46:50;;;;;;;13.88;9.73;;;;;;;-146.05;100.00;59461.22;5010095;28;20046;-87
2022/02/28 08:49:18;;;;;;;12.13;9.23;;;;;;;-146.05;100.00;59461.22;5007424;28;20061;-89
2022/02/28 08:51:46;;;;;;;18.35;9.02;;;;;;;-146.05;100.00;59461.22;5005419;28;20046;-86
2022/02/28 08:54:15;;;;;;;13.23;10.27;;;;;;;-146.05;100.00;59461.22;5006438;28;20051;-84
2022/02/28 08:56:43;;;;;;;13.43;10.43;;;;;;;-146.05;100.00;59461.22;5004173;28;20420;-87
2022/02/28 08:59:11;;;;;;;14.20;10.05;;;;;;;-146.05;100.00;59461.22;5003763;28;20062;-87
2022/02/28 09:01:38;;;;;;;10.70;9.35;;;;;;;-146.05;100.00;59461.22;5003271;28;20109;-82
2022/02/28 09:04:08;;;;;;;14.65;10.00;;;;;;;-146.05;100.00;59461.22;5003116;28;20106;-85
2022/02/28 09:06:36;;;;;;;12.80;9.18;;;;;;;-146.05;100.00;59461.22;5003190;28;20113;-88
2022/02/28 09:09:03;;;;;;;15.70;9.43;;;;;;;-146.05;100.00;59461.22;5005596;28;20062;-82
2022/02/28 09:11:31;;;;;;;15.95;9.82;;;;;;;-146.05;100.00;59461.22;5003830;28;20062;-80
2022/02/28 09:13:58;;;;;;;16.92;9.75;;;;;;;-146.05;100.00;59461.22;5002847;28;20065;-80
2022/02/28 09:16:28;;;;;;;14.77;9.68;;;;;;;-146.05;100.00;59461.22;5002132;28;20077;-84
2022/02/28 09:18:56;;;;;;;14.82;9.88;;;;;;;-146.05;100.00;59461.22;5002036;28;20054;-82
2022/02/28 09:21:27;;;;;;;14.00;10.15;;;;;;;-146.05;100.00;59461.22;5016410;28;20089;-82
2022/02/28 09:23:55;;;;;;;15.07;10.10;;;;;;;-146.05;100.00;59461.22;5003999;28;20049;-83
2022/02/28 09:26:22;;;;;;;13.40;9.88;;;;;;;-146.05;100.00;59461.22;5019092;28;20052;-82
2022/02/28 09:28:50;;;;;;;12.05;8.70;;;;;;;-146.05;100.00;59461.22;5015864;28;20452;-85
2022/02/28 09:31:18;;;;;;;12.70;9.63;;;;;;;-146.05;100.00;59461.22;5003652;28;20061;-82
2022/02/28 09:33:45;;;;;;;11.88;9.80;;;;;;;-146.05;100.00;59461.22;5002931;28;20052;-82
2022/02/28 09:39:55;;;;;;;11.27;9.15;;;;;;;-146.05;100.00;59461.22;4976354;28;20049;-86
2022/02/28 09:42:29;;;;;;;12.15;8.95;;;;;;;-146.05;100.00;59461.22;5003017;28;20508;-83
2022/02/28 09:45:03;;;;;;;12.38;9.15;;;;;;;-146.05;100.00;59461.22;5005366;28;20515;-81
2022/02/28 09:47:35;;;;;;;13.02;9.10;;;;;;;-146.05;100.00;59461.22;5005895;28;20046;-83
2022/02/28 09:50:22;;;;;;;12.80;9.18;;;;;;;-146.05;100.00;59461.22;5007525;28;20061;-86
2022/02/28 09:55:57;;;;;;;11.30;9.00;;;;;;;-146.05;100.00;59461.22;4924289;29;20059;-87
2022/02/28 09:58:28;;;;;;;12.32;8.45;;;;;;;-146.05;100.00;59461.22;4926673;29;20052;-89
2022/02/28 10:01:01;;;;;;;12.65;8.52;;;;;;;-146.05;100.00;59461.22;4929780;29;20032;-87
2022/02/28 10:03:41;;;;;;;15.43;9.35;;;;;;;-146.05;100.00;59461.22;4940467;29;20104;-87
2022/02/28 10:06:17;;;;;;;12.00;8.95;;;;;;;-146.05;100.00;59461.22;4938100;29;20112;-89
2022/02/28 10:13:10;;;;;;;13.20;9.57;;;;;;;-146.05;100.00;59461.22;4888255;29;20048;-88
2022/02/28 10:19:26;;;;;;;11.63;8.63;;;;;;;-146.05;100.00;59461.22;4929055;29;20078;-86
2022/02/28 10:21:56;;;;;;;11.15;9.18;;;;;;;-146.05;100.00;59461.22;4943131;29;20058;-89
2022/02/28 10:24:31;;;;;;;10.85;8.85;;;;;;;-146.05;100.00;59461.22;4956592;28;20349;-89
2022/02/28 10:27:00;;;;;;;16.23;9.82;;;;;;;-146.05;100.00;59461.22;4958825;28;20066;-88
2022/02/28 10:29:31;;;;;;;10.63;8.02;;;;;;;-146.05;100.00;59461.22;4958740;28;20071;-87
2022/02/28 11:20:55;;;;;;;10.32;7.75;;;;;;;-146.05;100.00;59461.22;5708285;23;20038;-89
2022/02/28 11:29:11;;;;;;;15.30;8.52;;;;;;;-146.05;100.00;59461.22;5582315;23;20038;-88
2022/02/28 11:31:42;;;;;;;9.85;7.57;;;;;;;-146.05;100.00;59461.22;5024863;28;20058;-89
2022/02/28 11:34:16;;;;;;;11.05;7.70;;;;;;;-146.05;100.00;59461.22;5015809;28;20040;-88
2022/02/28 11:37:13;;;;;;;9.10;7.30;;;;;;;-146.05;100.00;59461.22;5017417;28;20054;-89
2022/02/28 11:40:11;;;;;;;27.10;17.70;;;;;;;-146.05;100.00;59461.22;5017476;28;20054;-88
2022/02/28 11:50:27;;;;;;;13.20;9.15;;;;;;;-146.05;100.00;59461.22;4971079;28;20096;-88
2022/02/28 11:57:04;;;;;;;46.85;30.40;;;;;;;-146.05;100.00;59461.22;4971799;28;20079;-88
2022/02/28 12:02:46;;;;;;;18.83;13.48;;;;;;;-146.05;100.00;59461.22;5098370;23;20056;-87
2022/02/28 12:05:40;;;;;;;18.52;12.50;;;;;;;-146.05;100.00;59461.22;5040788;28;20534;-79
2022/02/28 12:08:20;;;;;;;8.90;7.72;;;;;;;-146.05;100.00;59461.22;5034529;28;20058;-88
2022/02/28 12:10:55;;;;;;;11.68;8.30;;;;;;;-146.05;100.00;59461.22;5035208;28;20060;-86
2022/02/28 12:13:37;;;;;;;11.63;8.55;;;;;;;-146.05;100.00;59461.22;5032492;28;20081;-87
2022/02/28 12:17:30;;;;;;;9.43;7.90;;;;;;;-146.05;100.00;59461.22;5034352;28;20053;-89
2022/02/28 12:19:35;;;;;;;10.65;7.15;;;;;;;-146.05;100.00;59461.22;5036020;28;20057;-87
2022/02/28 12:22:06;;;;;;;10.55;7.25;;;;;;;-146.05;100.00;59461.22;5032866;28;20139;-89
2022/02/28 12:25:05;;;;;;;8.65;7.13;;;;;;;-146.05;100.00;59461.22;5033132;28;20046;-86
2022/02/28 12:27:50;;;;;;;11.85;6.80;;;;;;;-146.05;100.00;59461.22;5028835;28;20056;-85
2022/02/28 12:31:02;;;;;;;10.98;7.07;;;;;;;-146.05;100.00;59461.22;5037531;28;20076;-90
2022/02/28 12:37:22;;;;;;;8.43;6.90;;;;;;;-146.05;100.00;59461.22;5038190;28;20090;-86
2022/02/28 12:40:00;;;;;;;11.68;8.40;;;;;;;-146.05;100.00;59461.22;5020378;28;20054;-82
2022/02/28 12:42:35;;;;;;;10.15;8.35;;;;;;;-146.05;100.00;59461.22;5005876;28;20054;-83
2022/02/28 12:45:17;;;;;;;8.65;6.88;;;;;;;-146.05;100.00;59461.22;5015423;28;20054;-85
2022/02/28 12:47:45;;;;;;;10.90;8.32;;;;;;;-146.05;100.00;59461.22;5023010;28;20488;-86
2022/02/28 12:50:18;;;;;;;8.88;7.55;;;;;;;-146.05;100.00;59461.22;5025914;28;20492;-84
2022/02/28 12:53:03;;;;;;;8.80;6.78;;;;;;;-146.05;100.00;59461.22;5023944;28;20553;-84
2022/02/28 12:55:40;;;;;;;9.05;6.88;;;;;;;-146.05;100.00;59461.22;5026571;28;20499;-81
2022/02/28 12:58:24;;;;;;;8.48;6.13;;;;;;;-146.05;100.00;59461.22;5024200;28;20161;-85
2022/02/28 13:01:14;;;;;;;7.97;7.03;;;;;;;-146.05;100.00;59461.22;5031443;28;20053;-86
2022/02/28 13:04:14;;;;;;;8.85;7.05;;;;;;;-146.05;100.00;59461.22;5032844;28;20046;-85
2022/02/28 13:06:49;;;;;;;9.88;7.25;;;;;;;-146.05;100.00;59461.22;5032986;28;20045;-86
2022/02/28 13:09:21;;;;;;;11.50;7.82;;;;;;;-146.05;100.00;59461.22;5031960;28;20054;-82
2022/02/28 13:12:05;;;;;;;10.25;7.05;;;;;;;-146.05;100.00;59461.22;5033716;28;20145;-84
2022/02/28 13:14:50;;;;;;;11.90;7.25;;;;;;;-146.05;100.00;59461.22;5029992;28;20053;-85
2022/02/28 13:20:47;;;;;;;8.18;6.75;;;;;;;-146.05;100.00;59461.22;5024329;28;20034;-84
2022/02/28 13:23:53;;;;;;;9.35;6.75;;;;;;;-146.05;100.00;59461.22;5034058;28;20038;-86
2022/02/28 13:26:40;;;;;;;10.30;7.10;;;;;;;-146.05;100.00;59461.22;5026210;28;20052;-82
2022/02/28 13:29:21;;;;;;;9.38;6.28;;;;;;;-146.05;100.00;59461.22;5026222;28;20100;-85
2022/02/28 13:31:57;;;;;;;8.65;6.82;;;;;;;-146.05;100.00;59461.22;5031190;28;20084;-84
2022/02/28 13:34:28;;;;;;;8.07;7.10;;;;;;;-146.05;100.00;59461.22;5036473;28;20104;-89
2022/02/28 13:37:20;;;;;;;8.60;6.43;;;;;;;-146.05;100.00;59461.22;5030474;28;20034;-85
2022/02/28 13:39:55;;;;;;;9.55;6.57;;;;;;;-146.05;100.00;59461.22;5033072;28;20076;-86